sensor_id;sensor_type;location;lat;lon;timestamp;pressure;altitude;pressure_sealevel;temperature;humidity
8585;BME280;7180;52.742;11.420;2022-08-01T00:02:26;100866.06;;;19.13;100.00
8585;BME280;7180;52.742;11.420;2022-08-01T00:04:53;100878.13;;;19.26;100.00
8585;BME280;7180;52.742;11.420;2022-08-01T00:07:19;100877.91;;;19.39;100.00
8585;BME280;7180;52.742;11.420;2022-08-01T00:09:44;100875.66;;;19.34;100.00
8585;BME280;7180;52.742;11.420;2022-08-01T00:12:09;100864.16;;;19.34;100.00
8585;BME280;7180;52.742;11.420;2022-08-01T00:14:35;100867.47;;;19.26;100.00
8585;BME280;7180;52.742;11.420;2022-08-01T00:17:00;100864.44;;;19.31;100.00
8585;BME280;7180;52.742;11.420;2022-08-01T00:19:26;100861.78;;;19.31;100.00
8585;BME280;7180;52.742;11.420;2022-08-01T00:21:51;100860.47;;;19.25;100.00
8585;BME280;7180;52.742;11.420;2022-08-01T00:24:16;100864.13;;;19.24;100.00
8585;BME280;7180;52.742;11.420;2022-08-01T00:26:41;100857.09;;;19.23;100.00
8585;BME280;7180;52.742;11.420;2022-08-01T00:29:07;100851.34;;;19.18;100.00
8585;BME280;7180;52.742;11.420;2022-08-01T00:31:32;100855.53;;;19.11;100.00
8585;BME280;7180;52.742;11.420;2022-08-01T00:33:57;100857.63;;;19.08;100.00
8585;BME280;7180;52.742;11.420;2022-08-01T00:36:23;100865.31;;;19.01;100.00
8585;BME280;7180;52.742;11.420;2022-08-01T00:38:48;100873.88;;;19.05;100.00
8585;BME280;7180;52.742;11.420;2022-08-01T00:41:13;100868.97;;;19.00;100.00
8585;BME280;7180;52.742;11.420;2022-08-01T00:43:38;100862.25;;;19.06;100.00
8585;BME280;7180;52.742;11.420;2022-08-01T00:46:04;100858.06;;;19.13;100.00
8585;BME280;7180;52.742;11.420;2022-08-01T00:48:29;100849.38;;;19.20;100.00
8585;BME280;7180;52.742;11.420;2022-08-01T00:50:54;100839.97;;;19.16;100.00
8585;BME280;7180;52.742;11.420;2022-08-01T00:53:20;100847.53;;;19.21;100.00
8585;BME280;7180;52.742;11.420;2022-08-01T00:55:46;100853.28;;;19.16;100.00
8585;BME280;7180;52.742;11.420;2022-08-01T00:58:12;100848.34;;;19.12;100.00
8585;BME280;7180;52.742;11.420;2022-08-01T01:00:38;100856.50;;;19.10;100.00
8585;BME280;7180;52.742;11.420;2022-08-01T01:03:03;100851.31;;;19.09;100.00
8585;BME280;7180;52.742;11.420;2022-08-01T01:05:29;100866.19;;;19.21;100.00
8585;BME280;7180;52.742;11.420;2022-08-01T01:08:08;100851.75;;;19.23;100.00
8585;BME280;7180;52.742;11.420;2022-08-01T01:10:48;100842.22;;;19.11;100.00
8585;BME280;7180;52.742;11.420;2022-08-01T01:13:35;100859.88;;;19.12;100.00
8585;BME280;7180;52.742;11.420;2022-08-01T01:16:13;100855.41;;;19.22;100.00
8585;BME280;7180;52.742;11.420;2022-08-01T01:18:48;100848.94;;;19.25;100.00
8585;BME280;7180;52.742;11.420;2022-08-01T01:26:40;100850.75;;;19.05;100.00
8585;BME280;7180;52.742;11.420;2022-08-01T01:29:15;100858.47;;;18.99;100.00
8585;BME280;7180;52.742;11.420;2022-08-01T01:31:50;100862.25;;;19.06;100.00
8585;BME280;7180;52.742;11.420;2022-08-01T01:34:18;100862.41;;;19.04;100.00
8585;BME280;7180;52.742;11.420;2022-08-01T01:36:46;100870.53;;;19.03;100.00
8585;BME280;7180;52.742;11.420;2022-08-01T01:39:13;100871.94;;;18.97;100.00
8585;BME280;7180;52.742;11.420;2022-08-01T01:41:40;100873.88;;;18.95;100.00
8585;BME280;7180;52.742;11.420;2022-08-01T01:44:06;100873.63;;;19.08;100.00
8585;BME280;7180;52.742;11.420;2022-08-01T01:46:33;100863.25;;;19.14;100.00
8585;BME280;7180;52.742;11.420;2022-08-01T01:49:01;100860.75;;;19.22;100.00
8585;BME280;7180;52.742;11.420;2022-08-01T01:51:28;100850.19;;;19.21;100.00
8585;BME280;7180;52.742;11.420;2022-08-01T01:53:55;100850.66;;;19.35;100.00
8585;BME280;7180;52.742;11.420;2022-08-01T01:56:21;100843.38;;;19.28;100.00
8585;BME280;7180;52.742;11.420;2022-08-01T01:58:51;100847.25;;;19.14;100.00
8585;BME280;7180;52.742;11.420;2022-08-01T02:01:18;100852.31;;;19.17;100.00
8585;BME280;7180;52.742;11.420;2022-08-01T02:03:45;100868.03;;;19.20;100.00
8585;BME280;7180;52.742;11.420;2022-08-01T02:06:13;100861.44;;;19.15;100.00
8585;BME280;7180;52.742;11.420;2022-08-01T02:08:40;100863.41;;;19.22;100.00
8585;BME280;7180;52.742;11.420;2022-08-01T02:11:07;100854.53;;;19.12;100.00
8585;BME280;7180;52.742;11.420;2022-08-01T02:13:53;100865.78;;;19.16;100.00
8585;BME280;7180;52.742;11.420;2022-08-01T02:16:23;100863.97;;;19.16;100.00
8585;BME280;7180;52.742;11.420;2022-08-01T02:18:49;100862.00;;;19.18;100.00
8585;BME280;7180;52.742;11.420;2022-08-01T02:21:21;100856.25;;;19.13;100.00
8585;BME280;7180;52.742;11.420;2022-08-01T02:23:49;100860.47;;;19.25;100.00
8585;BME280;7180;52.742;11.420;2022-08-01T02:26:17;100858.50;;;19.27;100.00
8585;BME280;7180;52.742;11.420;2022-08-01T02:28:47;100846.84;;;19.28;100.00
8585;BME280;7180;52.742;11.420;2022-08-01T02:31:17;100845.88;;;19.29;100.00
8585;BME280;7180;52.742;11.420;2022-08-01T02:33:46;100846.13;;;19.26;100.00
8585;BME280;7180;52.742;11.420;2022-08-01T02:36:16;100840.56;;;19.29;100.00
8585;BME280;7180;52.742;11.420;2022-08-01T02:38:43;100838.84;;;19.28;100.00
8585;BME280;7180;52.742;11.420;2022-08-01T02:41:13;100836.88;;;19.30;100.00
8585;BME280;7180;52.742;11.420;2022-08-01T02:43:43;100843.09;;;19.31;100.00
8585;BME280;7180;52.742;11.420;2022-08-01T02:46:16;100837.19;;;19.27;100.00
8585;BME280;7180;52.742;11.420;2022-08-01T02:48:44;100844.88;;;19.30;100.00
8585;BME280;7180;52.742;11.420;2022-08-01T02:51:12;100843.22;;;19.29;100.00
8585;BME280;7180;52.742;11.420;2022-08-01T02:53:40;100845.19;;;19.27;100.00
8585;BME280;7180;52.742;11.420;2022-08-01T02:56:08;100845.03;;;19.29;100.00
8585;BME280;7180;52.742;11.420;2022-08-01T02:58:35;100839.84;;;19.27;100.00
8585;BME280;7180;52.742;11.420;2022-08-01T03:01:02;100850.38;;;19.29;100.00
8585;BME280;7180;52.742;11.420;2022-08-01T03:03:28;100851.22;;;19.29;100.00
8585;BME280;7180;52.742;11.420;2022-08-01T03:05:55;100855.69;;;19.19;100.00
8585;BME280;7180;52.742;11.420;2022-08-01T03:08:22;100858.19;;;19.21;100.00
8585;BME280;7180;52.742;11.420;2022-08-01T03:10:49;100862.69;;;19.11;100.00
8585;BME280;7180;52.742;11.420;2022-08-01T03:13:16;100860.31;;;19.08;100.00
8585;BME280;7180;52.742;11.420;2022-08-01T03:15:43;100875.63;;;19.15;100.00
8585;BME280;7180;52.742;11.420;2022-08-01T03:18:10;100864.25;;;19.13;100.00
8585;BME280;7180;52.742;11.420;2022-08-01T03:20:36;100862.28;;;19.15;100.00
8585;BME280;7180;52.742;11.420;2022-08-01T03:23:05;100866.91;;;19.23;100.00
8585;BME280;7180;52.742;11.420;2022-08-01T03:25:32;100861.84;;;19.10;100.00
8585;BME280;7180;52.742;11.420;2022-08-01T03:28:02;100859.44;;;19.07;100.00
8585;BME280;7180;52.742;11.420;2022-08-01T03:30:29;100858.63;;;19.16;100.00
8585;BME280;7180;52.742;11.420;2022-08-01T03:32:55;100856.66;;;19.18;100.00
8585;BME280;7180;52.742;11.420;2022-08-01T03:35:22;100854.53;;;19.12;100.00
8585;BME280;7180;52.742;11.420;2022-08-01T03:37:52;100859.31;;;19.09;100.00
8585;BME280;7180;52.742;11.420;2022-08-01T03:40:23;100861.00;;;19.19;100.00
8585;BME280;7180;52.742;11.420;2022-08-01T03:42:55;100862.63;;;19.31;100.00
8585;BME280;7180;52.742;11.420;2022-08-01T03:45:23;100856.38;;;19.21;100.00
8585;BME280;7180;52.742;11.420;2022-08-01T03:47:57;100857.38;;;19.30;100.00
8585;BME280;7180;52.742;11.420;2022-08-01T03:50:24;100853.97;;;19.09;100.00
8585;BME280;7180;52.742;11.420;2022-08-01T03:52:50;100866.63;;;19.16;100.00
8585;BME280;7180;52.742;11.420;2022-08-01T03:55:16;100856.94;;;19.06;100.00
8585;BME280;7180;52.742;11.420;2022-08-01T03:57:44;100855.94;;;19.07;100.00
8585;BME280;7180;52.742;11.420;2022-08-01T04:00:10;100847.47;;;18.92;100.00
8585;BME280;7180;52.742;11.420;2022-08-01T04:02:36;100863.47;;;18.92;100.00
8585;BME280;7180;52.742;11.420;2022-08-01T04:05:03;100869.38;;;18.96;100.00
8585;BME280;7180;52.742;11.420;2022-08-01T04:07:31;100865.69;;;18.87;100.00
8585;BME280;7180;52.742;11.420;2022-08-01T04:09:57;100869.03;;;18.80;100.00
8585;BME280;7180;52.742;11.420;2022-08-01T04:12:22;100875.94;;;18.82;100.00
8585;BME280;7180;52.742;11.420;2022-08-01T04:14:48;100869.91;;;18.80;100.00
8585;BME280;7180;52.742;11.420;2022-08-01T04:17:14;100867.75;;;18.74;100.00
8585;BME280;7180;52.742;11.420;2022-08-01T04:19:40;100868.47;;;18.76;100.00
8585;BME280;7180;52.742;11.420;2022-08-01T04:22:05;100866.78;;;18.75;100.00
8585;BME280;7180;52.742;11.420;2022-08-01T04:24:32;100866.78;;;18.75;100.00
8585;BME280;7180;52.742;11.420;2022-08-01T04:27:00;100864.84;;;18.77;100.00
8585;BME280;7180;52.742;11.420;2022-08-01T04:29:26;100864.28;;;18.83;100.00
8585;BME280;7180;52.742;11.420;2022-08-01T04:31:54;100861.75;;;18.82;100.00
8585;BME280;7180;52.742;11.420;2022-08-01T04:34:23;100862.75;;;18.90;100.00
8585;BME280;7180;52.742;11.420;2022-08-01T04:36:50;100856.59;;;18.90;100.00
8585;BME280;7180;52.742;11.420;2022-08-01T04:39:17;100851.25;;;18.80;100.00
8585;BME280;7180;52.742;11.420;2022-08-01T04:41:45;100854.91;;;18.79;100.00
8585;BME280;7180;52.742;11.420;2022-08-01T04:44:12;100861.22;;;18.88;100.00
8585;BME280;7180;52.742;11.420;2022-08-01T04:46:38;100863.47;;;18.92;100.00
8585;BME280;7180;52.742;11.420;2022-08-01T04:49:06;100856.78;;;19.07;100.00
8585;BME280;7180;52.742;11.420;2022-08-01T04:51:34;100862.69;;;19.11;100.00
8585;BME280;7180;52.742;11.420;2022-08-01T04:53:59;100846.41;;;19.04;100.00
8585;BME280;7180;52.742;11.420;2022-08-01T04:56:26;100852.31;;;19.17;100.00
8585;BME280;7180;52.742;11.420;2022-08-01T04:58:51;100846.44;;;19.23;100.00
8585;BME280;7180;52.742;11.420;2022-08-01T05:01:36;100838.03;;;19.28;100.00
8585;BME280;7180;52.742;11.420;2022-08-01T05:04:01;100839.44;;;19.32;100.00
8585;BME280;7180;52.742;11.420;2022-08-01T05:06:27;100830.44;;;19.23;100.00
8585;BME280;7180;52.742;11.420;2022-08-01T05:08:52;100830.72;;;19.20;100.00
8585;BME280;7180;52.742;11.420;2022-08-01T05:11:17;100826.63;;;19.16;100.00
8585;BME280;7180;52.742;11.420;2022-08-01T05:13:43;100829.03;;;19.29;100.00
8585;BME280;7180;52.742;11.420;2022-08-01T05:16:08;100838.44;;;19.23;100.00
8585;BME280;7180;52.742;11.420;2022-08-01T05:18:33;100839.13;;;19.25;100.00
8585;BME280;7180;52.742;11.420;2022-08-01T05:20:59;100841.72;;;19.36;100.00
8585;BME280;7180;52.742;11.420;2022-08-01T05:23:24;100838.59;;;19.41;100.00
8585;BME280;7180;52.742;11.420;2022-08-01T05:25:49;100848.31;;;19.51;100.00
8585;BME280;7180;52.742;11.420;2022-08-01T05:28:14;100847.19;;;19.54;100.00
8585;BME280;7180;52.742;11.420;2022-08-01T05:30:40;100843.38;;;19.85;100.00
8585;BME280;7180;52.742;11.420;2022-08-01T05:33:05;100847.81;;;20.13;100.00
8585;BME280;7180;52.742;11.420;2022-08-01T05:35:31;100858.38;;;20.88;100.00
8585;BME280;7180;52.742;11.420;2022-08-01T05:37:56;100858.47;;;21.94;100.00
8585;BME280;7180;52.742;11.420;2022-08-01T05:40:21;100849.63;;;21.58;100.00
8585;BME280;7180;52.742;11.420;2022-08-01T05:42:46;100849.84;;;21.29;100.00
8585;BME280;7180;52.742;11.420;2022-08-01T05:45:12;100851.56;;;21.03;100.00
8585;BME280;7180;52.742;11.420;2022-08-01T05:47:37;100862.72;;;20.89;100.00
8585;BME280;7180;52.742;11.420;2022-08-01T05:50:03;100873.13;;;20.92;100.00
8585;BME280;7180;52.742;11.420;2022-08-01T05:52:28;100867.84;;;20.83;100.00
8585;BME280;7180;52.742;11.420;2022-08-01T05:54:54;100867.38;;;20.87;100.00
8585;BME280;7180;52.742;11.420;2022-08-01T05:57:19;100874.13;;;21.18;100.00
8585;BME280;7180;52.742;11.420;2022-08-01T05:59:44;100858.25;;;21.34;100.00
8585;BME280;7180;52.742;11.420;2022-08-01T06:02:09;100860.25;;;21.50;100.00
8585;BME280;7180;52.742;11.420;2022-08-01T06:04:35;100870.69;;;22.65;96.07
8585;BME280;7180;52.742;11.420;2022-08-01T06:07:00;100860.59;;;22.59;94.88
8585;BME280;7180;52.742;11.420;2022-08-01T06:09:25;100842.06;;;22.40;93.03
8585;BME280;7180;52.742;11.420;2022-08-01T06:11:51;100865.16;;;22.67;93.09
8585;BME280;7180;52.742;11.420;2022-08-01T06:14:16;100856.66;;;22.20;91.98
8585;BME280;7180;52.742;11.420;2022-08-01T06:16:41;100859.53;;;22.01;94.04
8585;BME280;7180;52.742;11.420;2022-08-01T06:19:07;100886.81;;;22.22;95.36
8585;BME280;7180;52.742;11.420;2022-08-01T06:21:32;100883.97;;;22.49;92.69
8585;BME280;7180;52.742;11.420;2022-08-01T06:23:57;100892.69;;;23.18;90.01
8585;BME280;7180;52.742;11.420;2022-08-01T06:26:22;100859.44;;;23.45;86.12
8585;BME280;7180;52.742;11.420;2022-08-01T06:28:48;100857.19;;;22.49;89.54
8585;BME280;7180;52.742;11.420;2022-08-01T06:31:13;100876.16;;;22.89;88.44
8585;BME280;7180;52.742;11.420;2022-08-01T06:33:39;100854.09;;;22.10;89.63
8585;BME280;7180;52.742;11.420;2022-08-01T06:36:05;100876.53;;;22.35;90.34
8585;BME280;7180;52.742;11.420;2022-08-01T06:38:30;100887.25;;;22.60;90.50
8585;BME280;7180;52.742;11.420;2022-08-01T06:40:56;100877.78;;;22.74;88.77
8585;BME280;7180;52.742;11.420;2022-08-01T06:43:21;100875.38;;;22.63;88.74
8585;BME280;7180;52.742;11.420;2022-08-01T06:45:47;100871.63;;;22.90;87.86
8585;BME280;7180;52.742;11.420;2022-08-01T06:48:12;100871.84;;;22.96;85.72
8585;BME280;7180;52.742;11.420;2022-08-01T06:50:38;100852.13;;;22.46;87.27
8585;BME280;7180;52.742;11.420;2022-08-01T06:53:03;100878.53;;;23.00;86.26
8585;BME280;7180;52.742;11.420;2022-08-01T06:55:29;100869.00;;;22.98;85.69
8585;BME280;7180;52.742;11.420;2022-08-01T06:57:55;100874.75;;;23.11;86.66
8585;BME280;7180;52.742;11.420;2022-08-01T07:00:22;100873.00;;;23.35;85.59
8585;BME280;7180;52.742;11.420;2022-08-01T07:02:49;100868.38;;;22.70;87.67
8585;BME280;7180;52.742;11.420;2022-08-01T07:05:14;100874.31;;;22.82;86.95
8585;BME280;7180;52.742;11.420;2022-08-01T07:07:40;100880.13;;;22.77;87.41
8585;BME280;7180;52.742;11.420;2022-08-01T07:10:05;100871.56;;;22.74;88.22
8585;BME280;7180;52.742;11.420;2022-08-01T07:12:31;100878.63;;;22.49;88.37
8585;BME280;7180;52.742;11.420;2022-08-01T07:14:57;100882.72;;;22.35;90.70
8585;BME280;7180;52.742;11.420;2022-08-01T07:17:23;100910.56;;;22.68;89.74
8585;BME280;7180;52.742;11.420;2022-08-01T07:19:48;100907.03;;;22.59;90.01
8585;BME280;7180;52.742;11.420;2022-08-01T07:22:13;100886.53;;;22.84;87.36
8585;BME280;7180;52.742;11.420;2022-08-01T07:24:41;100901.00;;;22.99;88.60
8585;BME280;7180;52.742;11.420;2022-08-01T07:27:06;100890.47;;;23.06;86.63
8585;BME280;7180;52.742;11.420;2022-08-01T07:29:32;100870.38;;;22.68;86.37
8585;BME280;7180;52.742;11.420;2022-08-01T07:31:58;100895.22;;;23.28;85.91
8585;BME280;7180;52.742;11.420;2022-08-01T07:34:24;100880.91;;;23.85;82.89
8585;BME280;7180;52.742;11.420;2022-08-01T07:36:51;100887.34;;;24.00;81.65
8585;BME280;7180;52.742;11.420;2022-08-01T07:39:16;100864.63;;;23.46;82.14
8585;BME280;7180;52.742;11.420;2022-08-01T07:41:42;100877.41;;;23.85;80.82
8585;BME280;7180;52.742;11.420;2022-08-01T07:44:07;100872.00;;;23.60;81.71
8585;BME280;7180;52.742;11.420;2022-08-01T07:46:32;100872.47;;;23.32;82.10
8585;BME280;7180;52.742;11.420;2022-08-01T07:48:58;100850.41;;;22.96;81.33
8585;BME280;7180;52.742;11.420;2022-08-01T07:51:23;100870.44;;;22.84;82.90
8585;BME280;7180;52.742;11.420;2022-08-01T07:53:48;100892.69;;;22.77;84.99
8585;BME280;7180;52.742;11.420;2022-08-01T07:56:14;100893.00;;;22.48;84.64
8585;BME280;7180;52.742;11.420;2022-08-01T07:58:39;100880.81;;;22.02;87.16
8585;BME280;7180;52.742;11.420;2022-08-01T08:01:04;100917.34;;;22.29;86.66
8585;BME280;7180;52.742;11.420;2022-08-01T08:03:30;100901.47;;;21.92;88.08
8585;BME280;7180;52.742;11.420;2022-08-01T08:05:55;100920.13;;;22.02;87.36
8585;BME280;7180;52.742;11.420;2022-08-01T08:08:21;100912.34;;;21.91;88.23
8585;BME280;7180;52.742;11.420;2022-08-01T08:10:46;100920.38;;;21.91;87.01
8585;BME280;7180;52.742;11.420;2022-08-01T08:13:12;100911.16;;;21.76;88.02
8585;BME280;7180;52.742;11.420;2022-08-01T08:15:37;100915.75;;;21.65;89.91
8585;BME280;7180;52.742;11.420;2022-08-01T08:18:03;100940.03;;;21.82;89.63
8585;BME280;7180;52.742;11.420;2022-08-01T08:20:29;100922.78;;;21.66;89.73
8585;BME280;7180;52.742;11.420;2022-08-01T08:22:55;100939.88;;;21.83;88.90
8585;BME280;7180;52.742;11.420;2022-08-01T08:25:21;100922.97;;;21.83;89.49
8585;BME280;7180;52.742;11.420;2022-08-01T08:27:49;100939.63;;;22.12;88.69
8585;BME280;7180;52.742;11.420;2022-08-01T08:30:14;100931.22;;;22.07;89.26
8585;BME280;7180;52.742;11.420;2022-08-01T08:32:40;100935.59;;;21.90;90.24
8585;BME280;7180;52.742;11.420;2022-08-01T08:35:06;100951.78;;;22.06;90.73
8585;BME280;7180;52.742;11.420;2022-08-01T08:37:33;100949.50;;;22.11;90.03
8585;BME280;7180;52.742;11.420;2022-08-01T08:39:59;100959.81;;;22.49;88.93
8585;BME280;7180;52.742;11.420;2022-08-01T08:42:24;100942.59;;;22.26;88.51
8585;BME280;7180;52.742;11.420;2022-08-01T08:44:50;100948.81;;;22.52;87.91
8585;BME280;7180;52.742;11.420;2022-08-01T08:47:16;100952.31;;;22.71;87.02
8585;BME280;7180;52.742;11.420;2022-08-01T08:49:43;100933.97;;;22.58;86.62
8585;BME280;7180;52.742;11.420;2022-08-01T08:52:10;100932.56;;;22.54;86.78
8585;BME280;7180;52.742;11.420;2022-08-01T08:54:37;100918.59;;;22.17;86.25
8585;BME280;7180;52.742;11.420;2022-08-01T08:57:04;100932.09;;;22.33;87.23
8585;BME280;7180;52.742;11.420;2022-08-01T08:59:30;100940.47;;;21.77;90.72
8585;BME280;7180;52.742;11.420;2022-08-01T09:01:57;100968.03;;;21.15;96.42
8585;BME280;7180;52.742;11.420;2022-08-01T09:04:23;101004.81;;;21.04;98.45
8585;BME280;7180;52.742;11.420;2022-08-01T09:06:49;101013.50;;;20.50;100.00
8585;BME280;7180;52.742;11.420;2022-08-01T09:09:14;101054.78;;;20.84;100.00
8585;BME280;7180;52.742;11.420;2022-08-01T09:11:40;101052.41;;;20.81;100.00
8585;BME280;7180;52.742;11.420;2022-08-01T09:14:09;101053.59;;;20.96;100.00
8585;BME280;7180;52.742;11.420;2022-08-01T09:16:37;101062.66;;;21.68;100.00
8585;BME280;7180;52.742;11.420;2022-08-01T09:19:16;101052.47;;;21.99;100.00
8585;BME280;7180;52.742;11.420;2022-08-01T09:21:56;101039.56;;;22.47;95.82
8585;BME280;7180;52.742;11.420;2022-08-01T09:24:22;101031.91;;;22.96;92.07
8585;BME280;7180;52.742;11.420;2022-08-01T09:26:48;101019.19;;;22.98;89.75
8585;BME280;7180;52.742;11.420;2022-08-01T09:29:20;101019.19;;;22.98;88.07
8585;BME280;7180;52.742;11.420;2022-08-01T09:31:46;101014.00;;;23.04;89.24
8585;BME280;7180;52.742;11.420;2022-08-01T09:34:12;101008.34;;;22.21;91.20
8585;BME280;7180;52.742;11.420;2022-08-01T09:36:48;101031.09;;;22.17;93.15
8585;BME280;7180;52.742;11.420;2022-08-01T09:39:20;101028.75;;;21.87;92.88
8585;BME280;7180;52.742;11.420;2022-08-01T09:41:47;101037.03;;;21.93;92.74
8585;BME280;7180;52.742;11.420;2022-08-01T09:44:13;101032.06;;;21.81;92.93
8585;BME280;7180;52.742;11.420;2022-08-01T09:46:52;101040.63;;;22.02;91.70
8585;BME280;7180;52.742;11.420;2022-08-01T09:49:32;101060.94;;;22.57;90.11
8585;BME280;7180;52.742;11.420;2022-08-01T09:52:09;101038.91;;;22.53;89.22
8585;BME280;7180;52.742;11.420;2022-08-01T09:54:35;101044.84;;;22.75;88.23
8585;BME280;7180;52.742;11.420;2022-08-01T09:57:15;101042.38;;;23.15;86.02
8585;BME280;7180;52.742;11.420;2022-08-01T09:59:43;101037.53;;;23.18;84.97
8585;BME280;7180;52.742;11.420;2022-08-01T10:02:14;101046.47;;;23.52;83.49
8585;BME280;7180;52.742;11.420;2022-08-01T10:04:48;101011.75;;;22.92;83.79
8585;BME280;7180;52.742;11.420;2022-08-01T10:07:14;101023.69;;;22.97;83.82
8585;BME280;7180;52.742;11.420;2022-08-01T10:09:44;101038.44;;;23.60;82.22
8585;BME280;7180;52.742;11.420;2022-08-01T10:12:11;101026.38;;;23.64;80.82
8585;BME280;7180;52.742;11.420;2022-08-01T10:14:38;101005.78;;;23.31;81.38
8585;BME280;7180;52.742;11.420;2022-08-01T10:17:07;100990.09;;;22.85;80.99
8585;BME280;7180;52.742;11.420;2022-08-01T10:19:34;101013.03;;;23.05;81.36
8585;BME280;7180;52.742;11.420;2022-08-01T10:22:01;101039.47;;;23.67;80.33
8585;BME280;7180;52.742;11.420;2022-08-01T10:24:28;101042.41;;;23.98;79.33
8585;BME280;7180;52.742;11.420;2022-08-01T10:27:00;101013.31;;;23.70;78.33
8585;BME280;7180;52.742;11.420;2022-08-01T10:29:31;101003.47;;;23.36;78.74
8585;BME280;7180;52.742;11.420;2022-08-01T10:31:59;100990.50;;;22.98;80.39
8585;BME280;7180;52.742;11.420;2022-08-01T10:34:25;101020.97;;;23.48;79.85
8585;BME280;7180;52.742;11.420;2022-08-01T10:36:51;101024.16;;;23.52;79.49
8585;BME280;7180;52.742;11.420;2022-08-01T10:39:16;101010.59;;;23.61;78.36
8585;BME280;7180;52.742;11.420;2022-08-01T10:41:44;101046.59;;;23.85;79.11
8585;BME280;7180;52.742;11.420;2022-08-01T10:44:10;101026.09;;;23.84;78.09
8585;BME280;7180;52.742;11.420;2022-08-01T10:46:38;101014.16;;;23.70;78.65
8585;BME280;7180;52.742;11.420;2022-08-01T10:49:15;101019.66;;;23.60;78.88
8585;BME280;7180;52.742;11.420;2022-08-01T10:51:41;101030.78;;;23.82;79.01
8585;BME280;7180;52.742;11.420;2022-08-01T10:54:09;101014.19;;;23.36;80.29
8585;BME280;7180;52.742;11.420;2022-08-01T10:56:43;101009.50;;;23.30;80.16
8585;BME280;7180;52.742;11.420;2022-08-01T10:59:09;101037.88;;;23.41;80.69
8585;BME280;7180;52.742;11.420;2022-08-01T11:01:34;101038.44;;;23.60;79.36
8585;BME280;7180;52.742;11.420;2022-08-01T11:04:13;101018.91;;;23.42;78.30
8585;BME280;7180;52.742;11.420;2022-08-01T11:07:02;101021.09;;;23.47;77.21
8585;BME280;7180;52.742;11.420;2022-08-01T11:09:37;101022.31;;;23.52;76.95
8585;BME280;7180;52.742;11.420;2022-08-01T11:17:34;101011.22;;;23.47;76.52
8585;BME280;7180;52.742;11.420;2022-08-01T11:20:05;101025.19;;;23.59;76.33
8585;BME280;7180;52.742;11.420;2022-08-01T11:22:31;101009.72;;;23.19;77.98
8585;BME280;7180;52.742;11.420;2022-08-01T11:24:57;101050.50;;;23.56;77.31
8585;BME280;7180;52.742;11.420;2022-08-01T11:27:28;101045.81;;;23.50;77.46
8585;BME280;7180;52.742;11.420;2022-08-01T11:32:54;100997.63;;;22.82;78.65
8585;BME280;7180;52.742;11.420;2022-08-01T11:35:21;101051.91;;;23.35;78.27
8585;BME280;7180;52.742;11.420;2022-08-01T11:37:48;101033.13;;;23.09;79.31
8585;BME280;7180;52.742;11.420;2022-08-01T11:40:17;101042.63;;;23.21;78.40
8585;BME280;7180;52.742;11.420;2022-08-01T11:42:43;101055.47;;;23.35;78.71
8585;BME280;7180;52.742;11.420;2022-08-01T11:45:09;101033.94;;;23.61;75.34
8585;BME280;7180;52.742;11.420;2022-08-01T11:47:50;101060.13;;;24.41;73.36
8585;BME280;7180;52.742;11.420;2022-08-01T11:52:58;101030.22;;;24.20;72.79
8585;BME280;7180;52.742;11.420;2022-08-01T11:55:24;101023.53;;;24.40;72.67
8585;BME280;7180;52.742;11.420;2022-08-01T11:57:58;101001.69;;;24.51;71.99
8585;BME280;7180;52.742;11.420;2022-08-01T12:00:24;101013.13;;;24.21;73.11
8585;BME280;7180;52.742;11.420;2022-08-01T12:03:02;101017.81;;;24.35;72.28
8585;BME280;7180;52.742;11.420;2022-08-01T12:05:29;100988.75;;;24.06;71.87
8585;BME280;7180;52.742;11.420;2022-08-01T12:07:55;101022.84;;;24.30;72.58
8585;BME280;7180;52.742;11.420;2022-08-01T12:10:22;101012.59;;;24.25;72.60
8585;BME280;7180;52.742;11.420;2022-08-01T12:12:59;101024.19;;;24.50;71.40
8585;BME280;7180;52.742;11.420;2022-08-01T12:15:29;101039.28;;;24.59;72.65
8585;BME280;7180;52.742;11.420;2022-08-01T12:17:56;100999.31;;;24.56;70.55
8585;BME280;7180;52.742;11.420;2022-08-01T12:20:23;101030.94;;;24.78;71.79
8585;BME280;7180;52.742;11.420;2022-08-01T12:22:56;101039.63;;;24.96;71.50
8585;BME280;7180;52.742;11.420;2022-08-01T12:25:22;101022.44;;;25.13;69.42
8585;BME280;7180;52.742;11.420;2022-08-01T12:27:48;101029.03;;;25.03;70.37
8585;BME280;7180;52.742;11.420;2022-08-01T12:30:18;101032.09;;;25.46;68.66
8585;BME280;7180;52.742;11.420;2022-08-01T12:32:46;101001.25;;;25.02;67.72
8585;BME280;7180;52.742;11.420;2022-08-01T12:35:13;100977.09;;;24.86;68.76
8585;BME280;7180;52.742;11.420;2022-08-01T12:37:44;100999.75;;;25.08;68.49
8585;BME280;7180;52.742;11.420;2022-08-01T12:42:44;100997.56;;;25.03;67.74
8585;BME280;7180;52.742;11.420;2022-08-01T12:45:11;100927.44;;;24.42;66.32
8585;BME280;7180;52.742;11.420;2022-08-01T12:47:38;100973.25;;;24.64;67.33
8585;BME280;7180;52.742;11.420;2022-08-01T12:50:10;100958.31;;;24.54;66.67
8585;BME280;7180;52.742;11.420;2022-08-01T12:52:36;100889.34;;;24.22;64.13
8585;BME280;7180;52.742;11.420;2022-08-01T12:55:11;100958.00;;;24.57;65.15
8585;BME280;7180;52.742;11.420;2022-08-01T12:57:39;100997.91;;;25.08;65.41
8585;BME280;7180;52.742;11.420;2022-08-01T13:02:33;100955.09;;;25.29;64.28
8585;BME280;7180;52.742;11.420;2022-08-01T13:04:58;100949.16;;;24.95;65.35
8585;BME280;7180;52.742;11.420;2022-08-01T13:07:35;100920.97;;;24.75;65.48
8585;BME280;7180;52.742;11.420;2022-08-01T13:10:01;100943.34;;;24.76;66.04
8585;BME280;7180;52.742;11.420;2022-08-01T13:12:26;100939.19;;;24.49;66.50
8585;BME280;7180;52.742;11.420;2022-08-01T13:14:51;100929.94;;;24.43;66.10
8585;BME280;7180;52.742;11.420;2022-08-01T13:17:31;100988.56;;;24.64;67.45
8585;BME280;7180;52.742;11.420;2022-08-01T13:19:56;100957.66;;;24.60;66.00